sensor_id;sensor_type;location;lat;lon;timestamp;temperature;humidity
48806;DHT22;34625;47.176;27.548;2022-08-07T00:00:54;28.10;54.30
48806;DHT22;34625;47.176;27.548;2022-08-07T00:03:20;28.10;54.30
48806;DHT22;34625;47.176;27.548;2022-08-07T00:05:47;28.10;54.50
48806;DHT22;34625;47.176;27.548;2022-08-07T00:08:15;28.10;54.50
48806;DHT22;34625;47.176;27.548;2022-08-07T00:10:41;28.20;54.50
48806;DHT22;34625;47.176;27.548;2022-08-07T00:13:07;28.10;54.60
48806;DHT22;34625;47.176;27.548;2022-08-07T00:15:33;28.10;54.60
48806;DHT22;34625;47.176;27.548;2022-08-07T00:18:00;28.10;54.60
48806;DHT22;34625;47.176;27.548;2022-08-07T00:20:26;28.10;54.60
48806;DHT22;34625;47.176;27.548;2022-08-07T00:22:52;28.10;54.70
48806;DHT22;34625;47.176;27.548;2022-08-07T00:25:18;28.00;54.70
48806;DHT22;34625;47.176;27.548;2022-08-07T00:27:44;28.10;54.70
48806;DHT22;34625;47.176;27.548;2022-08-07T00:30:11;28.10;54.70
48806;DHT22;34625;47.176;27.548;2022-08-07T00:32:37;28.10;54.70
48806;DHT22;34625;47.176;27.548;2022-08-07T00:35:03;28.10;54.70
48806;DHT22;34625;47.176;27.548;2022-08-07T00:37:29;28.10;54.70
48806;DHT22;34625;47.176;27.548;2022-08-07T00:39:55;28.20;54.70
48806;DHT22;34625;47.176;27.548;2022-08-07T00:42:22;28.20;54.70
48806;DHT22;34625;47.176;27.548;2022-08-07T00:44:48;28.10;54.70
48806;DHT22;34625;47.176;27.548;2022-08-07T00:47:14;28.10;54.70
48806;DHT22;34625;47.176;27.548;2022-08-07T00:49:40;28.10;54.60
48806;DHT22;34625;47.176;27.548;2022-08-07T00:52:07;28.00;54.70
48806;DHT22;34625;47.176;27.548;2022-08-07T00:54:33;28.20;54.70
48806;DHT22;34625;47.176;27.548;2022-08-07T00:57:00;28.00;54.70
48806;DHT22;34625;47.176;27.548;2022-08-07T00:59:26;28.00;54.70
48806;DHT22;34625;47.176;27.548;2022-08-07T01:01:52;28.00;54.80
48806;DHT22;34625;47.176;27.548;2022-08-07T01:04:18;28.00;54.80
48806;DHT22;34625;47.176;27.548;2022-08-07T01:06:45;28.00;54.80
48806;DHT22;34625;47.176;27.548;2022-08-07T01:09:11;27.90;54.40
48806;DHT22;34625;47.176;27.548;2022-08-07T01:11:37;28.00;54.90
48806;DHT22;34625;47.176;27.548;2022-08-07T01:14:05;28.00;54.90
48806;DHT22;34625;47.176;27.548;2022-08-07T01:16:32;28.00;54.90
48806;DHT22;34625;47.176;27.548;2022-08-07T01:18:58;28.10;54.90
48806;DHT22;34625;47.176;27.548;2022-08-07T01:21:25;28.00;54.90
48806;DHT22;34625;47.176;27.548;2022-08-07T01:23:55;28.10;55.00
48806;DHT22;34625;47.176;27.548;2022-08-07T01:26:22;28.00;55.00
48806;DHT22;34625;47.176;27.548;2022-08-07T01:28:50;28.00;55.00
48806;DHT22;34625;47.176;27.548;2022-08-07T01:31:21;28.00;55.00
48806;DHT22;34625;47.176;27.548;2022-08-07T01:33:54;28.00;55.00
48806;DHT22;34625;47.176;27.548;2022-08-07T01:36:23;28.10;55.00
48806;DHT22;34625;47.176;27.548;2022-08-07T01:38:50;28.00;55.00
48806;DHT22;34625;47.176;27.548;2022-08-07T01:41:21;28.20;55.00
48806;DHT22;34625;47.176;27.548;2022-08-07T01:43:49;28.10;55.00
48806;DHT22;34625;47.176;27.548;2022-08-07T01:46:16;28.00;54.80
48806;DHT22;34625;47.176;27.548;2022-08-07T01:48:45;28.00;54.80
48806;DHT22;34625;47.176;27.548;2022-08-07T01:51:20;28.00;54.80
48806;DHT22;34625;47.176;27.548;2022-08-07T01:53:51;28.00;54.90
48806;DHT22;34625;47.176;27.548;2022-08-07T01:56:25;28.00;54.90
48806;DHT22;34625;47.176;27.548;2022-08-07T01:58:57;28.10;55.00
48806;DHT22;34625;47.176;27.548;2022-08-07T02:01:26;27.90;54.50
48806;DHT22;34625;47.176;27.548;2022-08-07T02:04:06;28.00;55.10
48806;DHT22;34625;47.176;27.548;2022-08-07T02:06:34;28.00;55.10
48806;DHT22;34625;47.176;27.548;2022-08-07T02:09:08;28.00;55.10
48806;DHT22;34625;47.176;27.548;2022-08-07T02:11:38;28.00;55.10
48806;DHT22;34625;47.176;27.548;2022-08-07T02:14:09;28.00;55.20
48806;DHT22;34625;47.176;27.548;2022-08-07T02:16:37;27.90;54.70
48806;DHT22;34625;47.176;27.548;2022-08-07T02:19:06;28.00;55.20
48806;DHT22;34625;47.176;27.548;2022-08-07T02:21:36;28.00;55.20
48806;DHT22;34625;47.176;27.548;2022-08-07T02:24:04;28.00;55.20
48806;DHT22;34625;47.176;27.548;2022-08-07T02:26:33;28.00;55.10
48806;DHT22;34625;47.176;27.548;2022-08-07T02:29:06;27.90;54.70
48806;DHT22;34625;47.176;27.548;2022-08-07T02:31:34;27.90;54.70
48806;DHT22;34625;47.176;27.548;2022-08-07T02:34:03;28.10;55.20
48806;DHT22;34625;47.176;27.548;2022-08-07T02:36:30;27.90;54.70
48806;DHT22;34625;47.176;27.548;2022-08-07T02:39:02;28.10;55.20
48806;DHT22;34625;47.176;27.548;2022-08-07T02:41:29;28.00;55.20
48806;DHT22;34625;47.176;27.548;2022-08-07T02:43:57;27.90;54.60
48806;DHT22;34625;47.176;27.548;2022-08-07T02:46:27;28.00;55.20
48806;DHT22;34625;47.176;27.548;2022-08-07T02:48:56;28.00;55.10
48806;DHT22;34625;47.176;27.548;2022-08-07T02:51:24;28.00;55.10
48806;DHT22;34625;47.176;27.548;2022-08-07T02:53:53;28.00;55.10
48806;DHT22;34625;47.176;27.548;2022-08-07T02:56:22;28.00;55.10
48806;DHT22;34625;47.176;27.548;2022-08-07T02:58:53;27.90;54.50
48806;DHT22;34625;47.176;27.548;2022-08-07T03:01:20;27.90;54.60
48806;DHT22;34625;47.176;27.548;2022-08-07T03:03:50;27.80;54.70
48806;DHT22;34625;47.176;27.548;2022-08-07T03:06:22;28.00;55.30
48806;DHT22;34625;47.176;27.548;2022-08-07T03:08:50;27.90;54.80
48806;DHT22;34625;47.176;27.548;2022-08-07T03:11:16;28.00;55.30
48806;DHT22;34625;47.176;27.548;2022-08-07T03:13:43;27.90;54.70
48806;DHT22;34625;47.176;27.548;2022-08-07T03:16:10;27.90;54.70
48806;DHT22;34625;47.176;27.548;2022-08-07T03:18:37;27.90;54.70
48806;DHT22;34625;47.176;27.548;2022-08-07T03:21:05;27.80;54.80
48806;DHT22;34625;47.176;27.548;2022-08-07T03:23:32;27.90;54.80
48806;DHT22;34625;47.176;27.548;2022-08-07T03:26:00;28.00;55.30
48806;DHT22;34625;47.176;27.548;2022-08-07T03:28:32;28.00;55.30
48806;DHT22;34625;47.176;27.548;2022-08-07T03:31:02;27.90;54.70
48806;DHT22;34625;47.176;27.548;2022-08-07T03:33:54;27.90;54.70
48806;DHT22;34625;47.176;27.548;2022-08-07T03:36:23;28.00;55.30
48806;DHT22;34625;47.176;27.548;2022-08-07T03:38:53;27.90;54.80
48806;DHT22;34625;47.176;27.548;2022-08-07T03:41:20;27.90;54.70
48806;DHT22;34625;47.176;27.548;2022-08-07T03:43:47;28.00;55.30
48806;DHT22;34625;47.176;27.548;2022-08-07T03:46:14;28.00;55.20
48806;DHT22;34625;47.176;27.548;2022-08-07T03:48:41;27.90;54.70
48806;DHT22;34625;47.176;27.548;2022-08-07T03:51:08;28.00;55.30
48806;DHT22;34625;47.176;27.548;2022-08-07T03:53:39;27.90;54.70
48806;DHT22;34625;47.176;27.548;2022-08-07T03:56:06;27.80;54.80
48806;DHT22;34625;47.176;27.548;2022-08-07T03:58:36;27.90;54.90
48806;DHT22;34625;47.176;27.548;2022-08-07T04:01:05;27.90;54.90
48806;DHT22;34625;47.176;27.548;2022-08-07T04:03:35;28.00;55.50
48806;DHT22;34625;47.176;27.548;2022-08-07T04:06:02;28.00;55.50
48806;DHT22;34625;47.176;27.548;2022-08-07T04:08:28;27.90;55.00
48806;DHT22;34625;47.176;27.548;2022-08-07T04:10:56;27.90;55.00
48806;DHT22;34625;47.176;27.548;2022-08-07T04:13:23;27.90;54.90
48806;DHT22;34625;47.176;27.548;2022-08-07T04:15:50;27.90;55.00
48806;DHT22;34625;47.176;27.548;2022-08-07T04:18:18;27.90;55.00
48806;DHT22;34625;47.176;27.548;2022-08-07T04:20:45;28.00;55.50
48806;DHT22;34625;47.176;27.548;2022-08-07T04:23:12;28.00;55.50
48806;DHT22;34625;47.176;27.548;2022-08-07T04:25:41;28.00;55.50
48806;DHT22;34625;47.176;27.548;2022-08-07T04:28:09;27.90;54.90
48806;DHT22;34625;47.176;27.548;2022-08-07T04:30:37;28.00;55.40
48806;DHT22;34625;47.176;27.548;2022-08-07T04:33:09;27.90;54.90
48806;DHT22;34625;47.176;27.548;2022-08-07T04:35:39;28.00;55.40
48806;DHT22;34625;47.176;27.548;2022-08-07T04:38:11;28.00;55.30
48806;DHT22;34625;47.176;27.548;2022-08-07T04:40:43;27.80;54.80
48806;DHT22;34625;47.176;27.548;2022-08-07T04:43:10;27.90;54.80
48806;DHT22;34625;47.176;27.548;2022-08-07T04:51:25;28.00;55.50
48806;DHT22;34625;47.176;27.548;2022-08-07T04:54:01;27.80;55.00
48806;DHT22;34625;47.176;27.548;2022-08-07T04:56:42;27.90;55.10
48806;DHT22;34625;47.176;27.548;2022-08-07T04:59:17;27.90;55.10
48806;DHT22;34625;47.176;27.548;2022-08-07T05:04:19;27.90;55.10
48806;DHT22;34625;47.176;27.548;2022-08-07T05:07:06;27.90;55.00
48806;DHT22;34625;47.176;27.548;2022-08-07T05:12:51;27.90;55.00
48806;DHT22;34625;47.176;27.548;2022-08-07T05:15:35;28.00;55.50
48806;DHT22;34625;47.176;27.548;2022-08-07T05:18:02;27.90;55.30
48806;DHT22;34625;47.176;27.548;2022-08-07T05:20:34;28.00;55.70
48806;DHT22;34625;47.176;27.548;2022-08-07T05:23:10;28.00;56.30
48806;DHT22;34625;47.176;27.548;2022-08-07T05:25:39;28.00;56.70
48806;DHT22;34625;47.176;27.548;2022-08-07T05:28:08;28.10;55.70
48806;DHT22;34625;47.176;27.548;2022-08-07T05:30:36;28.10;55.30
48806;DHT22;34625;47.176;27.548;2022-08-07T05:33:04;27.90;54.60
48806;DHT22;34625;47.176;27.548;2022-08-07T05:35:32;28.00;55.70
48806;DHT22;34625;47.176;27.548;2022-08-07T05:37:59;27.90;55.30
48806;DHT22;34625;47.176;27.548;2022-08-07T05:40:27;28.00;55.90
48806;DHT22;34625;47.176;27.548;2022-08-07T05:42:54;28.10;55.70
48806;DHT22;34625;47.176;27.548;2022-08-07T05:45:20;27.90;55.20
48806;DHT22;34625;47.176;27.548;2022-08-07T05:47:47;27.90;55.30
48806;DHT22;34625;47.176;27.548;2022-08-07T05:50:13;27.90;55.10
48806;DHT22;34625;47.176;27.548;2022-08-07T05:52:40;28.00;55.90
48806;DHT22;34625;47.176;27.548;2022-08-07T05:55:07;27.80;55.40
48806;DHT22;34625;47.176;27.548;2022-08-07T05:57:36;27.90;55.10
48806;DHT22;34625;47.176;27.548;2022-08-07T06:00:03;27.90;55.20
48806;DHT22;34625;47.176;27.548;2022-08-07T06:02:49;27.90;57.40
48806;DHT22;34625;47.176;27.548;2022-08-07T06:05:20;28.00;57.80
48806;DHT22;34625;47.176;27.548;2022-08-07T06:07:50;28.10;58.10
48806;DHT22;34625;47.176;27.548;2022-08-07T06:10:17;28.00;58.40
48806;DHT22;34625;47.176;27.548;2022-08-07T06:12:45;28.00;56.80
48806;DHT22;34625;47.176;27.548;2022-08-07T06:15:14;28.10;56.40
48806;DHT22;34625;47.176;27.548;2022-08-07T06:17:42;28.10;56.40
48806;DHT22;34625;47.176;27.548;2022-08-07T06:20:09;28.10;56.30
48806;DHT22;34625;47.176;27.548;2022-08-07T06:22:59;28.00;56.20
48806;DHT22;34625;47.176;27.548;2022-08-07T06:25:33;28.10;56.90
48806;DHT22;34625;47.176;27.548;2022-08-07T06:28:08;28.10;56.50
48806;DHT22;34625;47.176;27.548;2022-08-07T06:30:35;28.10;56.30
48806;DHT22;34625;47.176;27.548;2022-08-07T06:33:03;28.00;56.00
48806;DHT22;34625;47.176;27.548;2022-08-07T06:35:30;28.10;56.00
48806;DHT22;34625;47.176;27.548;2022-08-07T06:37:56;28.10;56.00
48806;DHT22;34625;47.176;27.548;2022-08-07T06:40:24;28.10;56.30
48806;DHT22;34625;47.176;27.548;2022-08-07T06:42:51;28.00;56.60
48806;DHT22;34625;47.176;27.548;2022-08-07T06:45:36;28.00;56.80
48806;DHT22;34625;47.176;27.548;2022-08-07T06:48:03;27.90;56.60
48806;DHT22;34625;47.176;27.548;2022-08-07T06:50:43;27.90;56.50
48806;DHT22;34625;47.176;27.548;2022-08-07T06:53:12;27.90;56.50
48806;DHT22;34625;47.176;27.548;2022-08-07T06:55:41;28.00;56.80
48806;DHT22;34625;47.176;27.548;2022-08-07T06:58:10;27.90;56.80
48806;DHT22;34625;47.176;27.548;2022-08-07T07:00:54;28.00;57.40
48806;DHT22;34625;47.176;27.548;2022-08-07T07:03:23;27.90;57.00
48806;DHT22;34625;47.176;27.548;2022-08-07T07:05:50;28.00;57.30
48806;DHT22;34625;47.176;27.548;2022-08-07T07:08:16;28.00;57.40
48806;DHT22;34625;47.176;27.548;2022-08-07T07:10:42;27.90;56.90
48806;DHT22;34625;47.176;27.548;2022-08-07T07:13:18;28.20;57.40
48806;DHT22;34625;47.176;27.548;2022-08-07T07:15:51;28.00;57.30
48806;DHT22;34625;47.176;27.548;2022-08-07T07:18:40;28.00;57.50
48806;DHT22;34625;47.176;27.548;2022-08-07T07:21:15;28.20;57.50
48806;DHT22;34625;47.176;27.548;2022-08-07T07:23:42;28.10;57.40
48806;DHT22;34625;47.176;27.548;2022-08-07T07:26:13;28.20;57.50
48806;DHT22;34625;47.176;27.548;2022-08-07T07:28:46;28.10;57.20
48806;DHT22;34625;47.176;27.548;2022-08-07T07:31:15;28.00;57.00
48806;DHT22;34625;47.176;27.548;2022-08-07T07:33:45;28.00;57.10
48806;DHT22;34625;47.176;27.548;2022-08-07T07:36:13;28.00;58.20
48806;DHT22;34625;47.176;27.548;2022-08-07T07:38:40;28.10;58.90
48806;DHT22;34625;47.176;27.548;2022-08-07T07:41:09;28.10;60.20
48806;DHT22;34625;47.176;27.548;2022-08-07T07:43:41;28.10;59.60
48806;DHT22;34625;47.176;27.548;2022-08-07T07:46:08;28.00;59.10
48806;DHT22;34625;47.176;27.548;2022-08-07T07:48:35;28.20;58.70
48806;DHT22;34625;47.176;27.548;2022-08-07T07:51:03;28.10;58.50
48806;DHT22;34625;47.176;27.548;2022-08-07T07:53:31;28.20;58.40
48806;DHT22;34625;47.176;27.548;2022-08-07T07:55:59;28.10;58.10
48806;DHT22;34625;47.176;27.548;2022-08-07T07:58:29;28.10;58.00
48806;DHT22;34625;47.176;27.548;2022-08-07T08:00:56;28.10;58.00
48806;DHT22;34625;47.176;27.548;2022-08-07T08:03:23;28.20;57.60
48806;DHT22;34625;47.176;27.548;2022-08-07T08:05:50;28.10;57.50
48806;DHT22;34625;47.176;27.548;2022-08-07T08:08:16;28.30;57.60
48806;DHT22;34625;47.176;27.548;2022-08-07T08:10:43;28.20;57.30
48806;DHT22;34625;47.176;27.548;2022-08-07T08:13:11;28.30;56.90
48806;DHT22;34625;47.176;27.548;2022-08-07T08:15:39;28.20;56.80
48806;DHT22;34625;47.176;27.548;2022-08-07T08:18:08;28.20;56.80
48806;DHT22;34625;47.176;27.548;2022-08-07T08:20:38;28.10;56.80
48806;DHT22;34625;47.176;27.548;2022-08-07T08:23:07;28.20;56.70
48806;DHT22;34625;47.176;27.548;2022-08-07T08:25:52;28.30;56.50
48806;DHT22;34625;47.176;27.548;2022-08-07T08:28:40;28.10;56.80
48806;DHT22;34625;47.176;27.548;2022-08-07T08:31:09;28.30;56.80
48806;DHT22;34625;47.176;27.548;2022-08-07T08:33:36;28.20;56.70
48806;DHT22;34625;47.176;27.548;2022-08-07T08:36:05;28.10;56.70
48806;DHT22;34625;47.176;27.548;2022-08-07T08:38:36;28.30;56.60
48806;DHT22;34625;47.176;27.548;2022-08-07T08:43:44;28.20;56.70
48806;DHT22;34625;47.176;27.548;2022-08-07T08:46:16;28.30;56.40
48806;DHT22;34625;47.176;27.548;2022-08-07T08:48:57;28.40;56.50
48806;DHT22;34625;47.176;27.548;2022-08-07T08:51:31;28.30;56.50
48806;DHT22;34625;47.176;27.548;2022-08-07T08:56:46;28.30;56.50
48806;DHT22;34625;47.176;27.548;2022-08-07T08:59:30;28.40;56.30
48806;DHT22;34625;47.176;27.548;2022-08-07T09:07:48;28.30;56.00
48806;DHT22;34625;47.176;27.548;2022-08-07T09:13:08;28.40;55.70
48806;DHT22;34625;47.176;27.548;2022-08-07T09:15:53;28.30;55.50
48806;DHT22;34625;47.176;27.548;2022-08-07T09:24:04;28.20;55.60
48806;DHT22;34625;47.176;27.548;2022-08-07T09:35:37;28.30;56.10
48806;DHT22;34625;47.176;27.548;2022-08-07T09:41:09;28.30;56.20
48806;DHT22;34625;47.176;27.548;2022-08-07T09:44:02;28.30;56.10
48806;DHT22;34625;47.176;27.548;2022-08-07T09:49:47;28.30;56.00
48806;DHT22;34625;47.176;27.548;2022-08-07T10:09:28;28.40;58.30
48806;DHT22;34625;47.176;27.548;2022-08-07T10:14:47;28.60;61.80
48806;DHT22;34625;47.176;27.548;2022-08-07T10:32:24;28.90;57.80
48806;DHT22;34625;47.176;27.548;2022-08-07T10:35:28;29.00;58.60
48806;DHT22;34625;47.176;27.548;2022-08-07T10:38:20;29.00;57.90
48806;DHT22;34625;47.176;27.548;2022-08-07T10:41:05;29.10;57.20
48806;DHT22;34625;47.176;27.548;2022-08-07T10:43:38;28.80;57.30
48806;DHT22;34625;47.176;27.548;2022-08-07T10:46:14;29.00;58.60
48806;DHT22;34625;47.176;27.548;2022-08-07T10:48:56;29.20;59.20
48806;DHT22;34625;47.176;27.548;2022-08-07T10:54:05;29.40;60.60
48806;DHT22;34625;47.176;27.548;2022-08-07T11:05:13;29.40;57.30
48806;DHT22;34625;47.176;27.548;2022-08-07T11:08:08;29.30;57.10
48806;DHT22;34625;47.176;27.548;2022-08-07T11:11:05;29.20;57.20
48806;DHT22;34625;47.176;27.548;2022-08-07T11:13:37;29.20;56.60
48806;DHT22;34625;47.176;27.548;2022-08-07T11:16:10;29.10;55.40
48806;DHT22;34625;47.176;27.548;2022-08-07T11:18:49;29.10;54.50
48806;DHT22;34625;47.176;27.548;2022-08-07T11:24:11;28.90;52.50
48806;DHT22;34625;47.176;27.548;2022-08-07T11:26:50;29.00;52.70
48806;DHT22;34625;47.176;27.548;2022-08-07T11:29:32;28.80;52.00
48806;DHT22;34625;47.176;27.548;2022-08-07T11:32:09;28.80;51.70
48806;DHT22;34625;47.176;27.548;2022-08-07T11:34:56;28.80;52.40
48806;DHT22;34625;47.176;27.548;2022-08-07T11:42:59;28.80;51.10
48806;DHT22;34625;47.176;27.548;2022-08-07T11:48:15;28.80;50.80
48806;DHT22;34625;47.176;27.548;2022-08-07T11:54:14;28.70;50.40
48806;DHT22;34625;47.176;27.548;2022-08-07T12:07:54;28.80;51.40
48806;DHT22;34625;47.176;27.548;2022-08-07T12:10:38;28.70;51.60
48806;DHT22;34625;47.176;27.548;2022-08-07T12:13:12;28.80;51.50
48806;DHT22;34625;47.176;27.548;2022-08-07T12:15:49;28.80;51.40
48806;DHT22;34625;47.176;27.548;2022-08-07T12:18:40;28.90;51.40
48806;DHT22;34625;47.176;27.548;2022-08-07T12:24:06;28.80;54.90
48806;DHT22;34625;47.176;27.548;2022-08-07T12:26:40;28.90;56.30
48806;DHT22;34625;47.176;27.548;2022-08-07T12:29:16;28.90;56.40
48806;DHT22;34625;47.176;27.548;2022-08-07T12:31:52;28.90;54.00
48806;DHT22;34625;47.176;27.548;2022-08-07T12:34:21;29.00;52.50
48806;DHT22;34625;47.176;27.548;2022-08-07T12:36:49;28.80;50.10
48806;DHT22;34625;47.176;27.548;2022-08-07T12:39:18;28.80;49.00
48806;DHT22;34625;47.176;27.548;2022-08-07T12:41:45;28.80;48.40
48806;DHT22;34625;47.176;27.548;2022-08-07T12:44:12;28.80;47.90
48806;DHT22;34625;47.176;27.548;2022-08-07T12:46:59;28.90;47.60
48806;DHT22;34625;47.176;27.548;2022-08-07T12:52:15;28.80;46.50
48806;DHT22;34625;47.176;27.548;2022-08-07T12:57:57;29.00;46.50
48806;DHT22;34625;47.176;27.548;2022-08-07T13:00:49;29.10;45.90
48806;DHT22;34625;47.176;27.548;2022-08-07T13:06:13;28.80;45.00
48806;DHT22;34625;47.176;27.548;2022-08-07T13:08:54;29.00;45.10
48806;DHT22;34625;47.176;27.548;2022-08-07T13:11:24;29.00;44.90
48806;DHT22;34625;47.176;27.548;2022-08-07T13:20:11;29.00;44.00
48806;DHT22;34625;47.176;27.548;2022-08-07T13:22:49;28.90;43.50
48806;DHT22;34625;47.176;27.548;2022-08-07T13:25:29;29.00;43.80
48806;DHT22;34625;47.176;27.548;2022-08-07T13:28:08;29.00;43.60
48806;DHT22;34625;47.176;27.548;2022-08-07T13:30:39;28.80;43.30
48806;DHT22;34625;47.176;27.548;2022-08-07T13:33:37;28.90;43.70
48806;DHT22;34625;47.176;27.548;2022-08-07T13:36:12;28.90;44.10
48806;DHT22;34625;47.176;27.548;2022-08-07T13:38:48;28.90;44.90
48806;DHT22;34625;47.176;27.548;2022-08-07T13:41:43;28.90;45.40
48806;DHT22;34625;47.176;27.548;2022-08-07T13:44:17;28.80;46.20
48806;DHT22;34625;47.176;27.548;2022-08-07T13:46:46;29.00;46.70
48806;DHT22;34625;47.176;27.548;2022-08-07T13:49:16;29.10;46.90
48806;DHT22;34625;47.176;27.548;2022-08-07T13:51:45;28.90;46.60
48806;DHT22;34625;47.176;27.548;2022-08-07T13:54:12;28.80;46.50
48806;DHT22;34625;47.176;27.548;2022-08-07T13:56:40;28.90;46.80
48806;DHT22;34625;47.176;27.548;2022-08-07T13:59:18;28.90;47.00
48806;DHT22;34625;47.176;27.548;2022-08-07T14:04:17;28.90;47.40
48806;DHT22;34625;47.176;27.548;2022-08-07T14:06:47;28.90;46.90
48806;DHT22;34625;47.176;27.548;2022-08-07T14:09:24;28.90;47.10
48806;DHT22;34625;47.176;27.548;2022-08-07T14:11:57;29.00;47.60
48806;DHT22;34625;47.176;27.548;2022-08-07T14:14:28;29.00;48.50
48806;DHT22;34625;47.176;27.548;2022-08-07T14:16:59;28.90;47.60
48806;DHT22;34625;47.176;27.548;2022-08-07T14:22:16;28.90;47.80
48806;DHT22;34625;47.176;27.548;2022-08-07T14:24:56;28.90;47.60
48806;DHT22;34625;47.176;27.548;2022-08-07T14:27:37;29.00;48.40
48806;DHT22;34625;47.176;27.548;2022-08-07T14:30:07;28.90;47.80
48806;DHT22;34625;47.176;27.548;2022-08-07T14:32:53;28.90;48.10
48806;DHT22;34625;47.176;27.548;2022-08-07T14:35:22;28.90;48.10
48806;DHT22;34625;47.176;27.548;2022-08-07T14:37:50;28.80;48.10
48806;DHT22;34625;47.176;27.548;2022-08-07T14:40:21;28.80;48.40
48806;DHT22;34625;47.176;27.548;2022-08-07T14:42:54;28.80;48.40
48806;DHT22;34625;47.176;27.548;2022-08-07T14:45:29;28.80;48.40
48806;DHT22;34625;47.176;27.548;2022-08-07T14:47:58;28.90;48.90
48806;DHT22;34625;47.176;27.548;2022-08-07T14:50:27;28.80;48.70
48806;DHT22;34625;47.176;27.548;2022-08-07T14:52:54;28.90;49.00
48806;DHT22;34625;47.176;27.548;2022-08-07T14:55:22;28.80;48.90
48806;DHT22;34625;47.176;27.548;2022-08-07T14:57:53;28.80;48.90
48806;DHT22;34625;47.176;27.548;2022-08-07T15:00:25;28.80;49.00
48806;DHT22;34625;47.176;27.548;2022-08-07T15:02:53;29.00;49.60
48806;DHT22;34625;47.176;27.548;2022-08-07T15:05:22;28.80;49.10
48806;DHT22;34625;47.176;27.548;2022-08-07T15:07:49;29.00;51.50
48806;DHT22;34625;47.176;27.548;2022-08-07T15:10:19;29.20;52.70
48806;DHT22;34625;47.176;27.548;2022-08-07T15:12:48;29.30;55.60
48806;DHT22;34625;47.176;27.548;2022-08-07T15:15:23;29.50;54.80
48806;DHT22;34625;47.176;27.548;2022-08-07T15:18:00;29.40;54.00
48806;DHT22;34625;47.176;27.548;2022-08-07T15:20:35;29.30;51.70
48806;DHT22;34625;47.176;27.548;2022-08-07T15:23:08;29.30;51.30
48806;DHT22;34625;47.176;27.548;2022-08-07T15:25:36;29.20;51.10
48806;DHT22;34625;47.176;27.548;2022-08-07T15:28:05;29.20;51.40
48806;DHT22;34625;47.176;27.548;2022-08-07T15:30:33;29.10;50.70
48806;DHT22;34625;47.176;27.548;2022-08-07T15:33:03;29.20;51.10
48806;DHT22;34625;47.176;27.548;2022-08-07T15:35:31;29.20;51.40
48806;DHT22;34625;47.176;27.548;2022-08-07T15:38:00;29.20;51.50
48806;DHT22;34625;47.176;27.548;2022-08-07T15:40:31;29.20;51.30
48806;DHT22;34625;47.176;27.548;2022-08-07T15:43:02;29.20;51.40
48806;DHT22;34625;47.176;27.548;2022-08-07T15:45:36;29.10;51.60
48806;DHT22;34625;47.176;27.548;2022-08-07T15:50:39;29.10;51.90
48806;DHT22;34625;47.176;27.548;2022-08-07T15:53:27;29.10;52.00
48806;DHT22;34625;47.176;27.548;2022-08-07T15:55:59;29.20;51.90
48806;DHT22;34625;47.176;27.548;2022-08-07T16:01:26;29.20;51.70
48806;DHT22;34625;47.176;27.548;2022-08-07T16:04:02;29.10;52.20
48806;DHT22;34625;47.176;27.548;2022-08-07T16:06:35;29.20;52.50
48806;DHT22;34625;47.176;27.548;2022-08-07T16:09:19;29.30;51.90
48806;DHT22;34625;47.176;27.548;2022-08-07T16:14:52;29.10;52.80
48806;DHT22;34625;47.176;27.548;2022-08-07T16:23:31;29.30;52.80
48806;DHT22;34625;47.176;27.548;2022-08-07T16:34:19;29.20;52.70
48806;DHT22;34625;47.176;27.548;2022-08-07T16:45:32;29.20;52.70
48806;DHT22;34625;47.176;27.548;2022-08-07T16:53:38;29.20;52.50
48806;DHT22;34625;47.176;27.548;2022-08-07T16:59:22;29.20;53.70
48806;DHT22;34625;47.176;27.548;2022-08-07T17:07:32;29.40;51.60
48806;DHT22;34625;47.176;27.548;2022-08-07T17:10:04;29.30;51.20
48806;DHT22;34625;47.176;27.548;2022-08-07T17:12:58;29.20;50.60
48806;DHT22;34625;47.176;27.548;2022-08-07T17:15:42;29.20;50.60
48806;DHT22;34625;47.176;27.548;2022-08-07T17:18:43;29.30;50.10
48806;DHT22;34625;47.176;27.548;2022-08-07T17:21:14;29.20;51.40
48806;DHT22;34625;47.176;27.548;2022-08-07T17:26:26;29.20;50.00
48806;DHT22;34625;47.176;27.548;2022-08-07T17:29:12;29.20;50.40
48806;DHT22;34625;47.176;27.548;2022-08-07T17:32:18;29.20;49.80
48806;DHT22;34625;47.176;27.548;2022-08-07T17:34:52;29.10;50.00
48806;DHT22;34625;47.176;27.548;2022-08-07T17:37:40;29.10;50.80
48806;DHT22;34625;47.176;27.548;2022-08-07T17:40:38;29.10;50.40
48806;DHT22;34625;47.176;27.548;2022-08-07T17:43:13;29.10;50.30
48806;DHT22;34625;47.176;27.548;2022-08-07T17:45:43;29.10;50.10
48806;DHT22;34625;47.176;27.548;2022-08-07T17:48:20;29.20;49.90
48806;DHT22;34625;47.176;27.548;2022-08-07T17:54:12;29.20;49.40
48806;DHT22;34625;47.176;27.548;2022-08-07T17:56:51;29.10;49.50
48806;DHT22;34625;47.176;27.548;2022-08-07T17:59:24;29.10;49.30
48806;DHT22;34625;47.176;27.548;2022-08-07T18:02:06;29.00;48.90
48806;DHT22;34625;47.176;27.548;2022-08-07T18:10:24;28.80;48.90
48806;DHT22;34625;47.176;27.548;2022-08-07T18:15:41;28.60;49.20
48806;DHT22;34625;47.176;27.548;2022-08-07T18:18:16;28.60;49.10
48806;DHT22;34625;47.176;27.548;2022-08-07T18:21:05;28.70;49.20
48806;DHT22;34625;47.176;27.548;2022-08-07T18:29:23;28.40;49.40
48806;DHT22;34625;47.176;27.548;2022-08-07T18:37:18;28.40;49.60
48806;DHT22;34625;47.176;27.548;2022-08-07T18:40:26;28.40;49.80
48806;DHT22;34625;47.176;27.548;2022-08-07T18:45:26;28.40;49.70
48806;DHT22;34625;47.176;27.548;2022-08-07T18:48:08;28.30;49.80
48806;DHT22;34625;47.176;27.548;2022-08-07T18:50:52;28.20;49.90
48806;DHT22;34625;47.176;27.548;2022-08-07T19:01:33;28.10;50.00
48806;DHT22;34625;47.176;27.548;2022-08-07T19:04:26;28.10;50.00
48806;DHT22;34625;47.176;27.548;2022-08-07T19:07:00;28.10;50.10
48806;DHT22;34625;47.176;27.548;2022-08-07T19:09:48;28.10;50.00
48806;DHT22;34625;47.176;27.548;2022-08-07T19:15:18;28.00;50.20
48806;DHT22;34625;47.176;27.548;2022-08-07T19:21:12;28.00;49.80
48806;DHT22;34625;47.176;27.548;2022-08-07T19:23:52;28.10;50.00
48806;DHT22;34625;47.176;27.548;2022-08-07T19:26:23;28.10;49.50
48806;DHT22;34625;47.176;27.548;2022-08-07T19:28:53;28.00;49.50
48806;DHT22;34625;47.176;27.548;2022-08-07T19:31:32;28.20;49.50
48806;DHT22;34625;47.176;27.548;2022-08-07T19:34:00;28.10;49.00
48806;DHT22;34625;47.176;27.548;2022-08-07T19:36:33;28.10;49.20